Westenwind — PA4143 — position and weather

sailwx.info

Track history (hours):
 
Tides and Currents Weather Stations Pressure Air Temp Water Temp Dewpoint Dewpoint Depression Visibility Wind Speed Wind Dir Waves Ship Positions

Westenwind

Last reported at 2018-Jul-22 20:57 UTC. Time now 2018-Jul-22 21:43 UTC.
Position N 38°42' W 009°10'.

; draft 0.2 m.

Type: Pleasure craft. MMSI: 244860072.

Date/timePositionNaut miles runAvg speedWind from/ knotsBaromVisibWave heightAir tempDewpointWater temp
2018-Jul-22 20:57N 38°42' W 009°10'0 0.0
2018-Jul-22 20:19N 38°42' W 009°10'0 0.0
2018-Jul-22 20:00N 38°42' W 009°10'0 0.0
2018-Jul-22 19:12N 38°42' W 009°10'0 0.0
2018-Jul-22 18:53N 38°42' W 009°10'0 0.0
2018-Jul-22 18:29N 38°42' W 009°10'0 0.0
2018-Jul-22 17:59N 38°42' W 009°10'0 0.0
2018-Jul-22 17:28N 38°42' W 009°10'0 0.0
2018-Jul-22 16:59N 38°42' W 009°10'0 0.0
2018-Jul-22 16:22N 38°42' W 009°10'0 0.0
2018-Jul-22 15:56N 38°42' W 009°10'0 0.0
2018-Jul-22 14:59N 38°42' W 009°10'0 0.0
2018-Jul-22 14:30N 38°42' W 009°10'0 0.0
2018-Jul-22 13:52N 38°42' W 009°10'0 0.0
2018-Jul-22 13:18N 38°42' W 009°10'0 0.0
2018-Jul-22 13:00N 38°42' W 009°10'0 0.0
2018-Jul-22 12:29N 38°42' W 009°10'0 0.0
2018-Jul-22 12:00N 38°42' W 009°10'0 0.0
2018-Jul-22 11:27N 38°42' W 009°10'0 0.0
2018-Jul-22 10:59N 38°42' W 009°10'0 0.0
2018-Jul-22 10:27N 38°42' W 009°10'0 0.0
2018-Jul-22 10:00N 38°42' W 009°10'0 0.0
2018-Jul-22 09:25N 38°42' W 009°10'0 0.0
2018-Jul-22 09:00N 38°42' W 009°10'0 0.0
2018-Jul-22 08:22N 38°42' W 009°10'0 0.0
2018-Jul-22 07:56N 38°42' W 009°10'0 0.0
2018-Jul-22 07:30N 38°42' W 009°10'0 0.0
2018-Jul-22 06:53N 38°42' W 009°10'0 0.0
2018-Jul-22 06:29N 38°42' W 009°10'0 0.0
2018-Jul-22 05:57N 38°42' W 009°10'0 0.0
2018-Jul-22 05:27N 38°42' W 009°10'0 0.0
2018-Jul-22 04:54N 38°42' W 009°10'0 0.0
2018-Jul-22 04:30N 38°42' W 009°10'0 0.0
2018-Jul-22 03:51N 38°42' W 009°10'0 0.0
2018-Jul-22 03:27N 38°42' W 009°10'0 0.0
2018-Jul-22 02:41N 38°42' W 009°10'0 0.0
2018-Jul-22 02:21N 38°42' W 009°10'0 0.0
2018-Jul-22 02:00N 38°42' W 009°10'0 0.0
2018-Jul-22 01:30N 38°42' W 009°10'0 0.0
2018-Jul-22 00:57N 38°42' W 009°10'0 0.0
2018-Jul-22 00:28N 38°42' W 009°10'0 0.0
2018-Jul-21 23:53N 38°42' W 009°10'0 0.0
2018-Jul-21 23:29N 38°42' W 009°10'0 0.0
2018-Jul-21 22:57N 38°42' W 009°10'0 0.0
2018-Jul-21 22:28N 38°42' W 009°10'0 0.0
2018-Jul-21 21:55N 38°42' W 009°10'0 0.0
2018-Jul-21 21:25N 38°42' W 009°10'0 0.0
2018-Jul-21 20:58N 38°42' W 009°10'0 0.0
2018-Jul-21 20:23N 38°42' W 009°10'0 0.0
2018-Jul-21 19:52N 38°42' W 009°10'0 0.0
2018-Jul-21 19:30N 38°42' W 009°10'0 0.0
2018-Jul-21 18:57N 38°42' W 009°10'0 0.0
2018-Jul-21 18:11N 38°42' W 009°10'0 0.0
2018-Jul-21 17:55N 38°42' W 009°10'0 0.0
2018-Jul-21 17:30N 38°42' W 009°10'0 0.8
2018-Jul-21 17:00N 38°42' W 009°09'2 4.7
2018-Jul-21 16:30N 38°41' W 009°12'0 0.6
2018-Jul-21 16:00N 38°41' W 009°12'2 4.8
2018-Jul-21 15:30N 38°42' W 009°09'1 1.8
2018-Jul-21 15:00N 38°42' W 009°08'1 2.6
2018-Jul-21 14:30N 38°42' W 009°10'0 0.0
2018-Jul-21 13:27N 38°42' W 009°10'0 0.0
2018-Jul-21 12:59N 38°42' W 009°10'1 1.3
2018-Jul-21 12:30N 38°42' W 009°09'1 2.4
2018-Jul-21 11:59N 38°41' W 009°11'1 2.9
2018-Jul-21 11:30N 38°41' W 009°12'0 0.4
2018-Jul-21 10:59N 38°41' W 009°12'2 4.8
2018-Jul-21 10:30N 38°42' W 009°10'0 0.7
2018-Jul-21 10:00N 38°42' W 009°10'0 0.0
2018-Jul-21 09:27N 38°42' W 009°10'0 0.0
2018-Jul-21 08:56N 38°42' W 009°10'0 0.0
2018-Jul-21 08:29N 38°42' W 009°10'0 0.0
2018-Jul-21 08:00N 38°42' W 009°10'0 0.0
2018-Jul-21 07:24N 38°42' W 009°10'0 0.0
2018-Jul-21 06:57N 38°42' W 009°10'0 0.0
2018-Jul-21 06:26N 38°42' W 009°10'0 0.0
2018-Jul-21 06:00N 38°42' W 009°10'0 0.0
2018-Jul-21 05:29N 38°42' W 009°10'0 0.0
2018-Jul-21 04:37N 38°42' W 009°10'0 0.0
2018-Jul-21 04:25N 38°42' W 009°10'0 0.0
2018-Jul-21 03:57N 38°42' W 009°10'0 0.0
2018-Jul-21 00:49N 38°42' W 009°10'0 0.0
2018-Jul-21 00:17N 38°42' W 009°10'0 0.0
2018-Jul-20 23:55N 38°42' W 009°10'0 0.0
2018-Jul-20 23:22N 38°42' W 009°10'0 0.0
2018-Jul-20 22:56N 38°42' W 009°10'0 0.0
2018-Jul-20 22:16N 38°42' W 009°10'0 0.0
2018-Jul-20 21:54N 38°42' W 009°10'0 0.0
2018-Jul-20 21:25N 38°42' W 009°10'0 0.0
2018-Jul-20 20:59N 38°42' W 009°10'0 0.0
2018-Jul-20 20:20N 38°42' W 009°10'0 0.0
2018-Jul-20 19:54N 38°42' W 009°10'0 0.0
2018-Jul-20 19:25N 38°42' W 009°10'0 0.0
2018-Jul-20 18:42N 38°42' W 009°10'0 0.0
2018-Jul-20 18:19N 38°42' W 009°10'0 0.0
2018-Jul-20 17:54N 38°42' W 009°10'0 0.0
2018-Jul-20 17:30N 38°42' W 009°10'0 0.0
2018-Jul-20 16:59N 38°42' W 009°10'0 0.0
2018-Jul-20 16:30N 38°42' W 009°10'0 0.0
2018-Jul-20 15:51N 38°42' W 009°10'0 0.0
2018-Jul-20 15:29N 38°42' W 009°10'0 0.0
2018-Jul-20 15:00N 38°42' W 009°10'0 0.0
2018-Jul-20 14:30N 38°42' W 009°10'0 0.0
2018-Jul-20 13:59N 38°42' W 009°10'0 0.0
2018-Jul-20 13:25N 38°42' W 009°10'0 0.0
2018-Jul-20 13:00N 38°42' W 009°10'0 0.0
2018-Jul-20 12:18N 38°42' W 009°10'0 0.0
2018-Jul-20 11:58N 38°42' W 009°10'0 0.0
2018-Jul-20 10:04N 38°42' W 009°10'0 0.0
2018-Jul-20 09:53N 38°42' W 009°10'0 0.0
2018-Jul-20 09:30N 38°42' W 009°10'0 0.0
2018-Jul-20 08:51N 38°42' W 009°10'0 0.0
2018-Jul-20 07:56N 38°42' W 009°10'0 0.0
2018-Jul-20 07:29N 38°42' W 009°10'0 0.0
2018-Jul-20 06:40N 38°42' W 009°10'0 0.0
2018-Jul-20 06:22N 38°42' W 009°10'0 0.0
2018-Jul-20 05:33N 38°42' W 009°10'0 0.0
2018-Jul-20 04:52N 38°42' W 009°10'0 0.0
2018-Jul-20 04:30N 38°42' W 009°10'0 0.0
2018-Jul-20 03:59N 38°42' W 009°10'0 0.0
2018-Jul-20 03:23N 38°42' W 009°10'0 0.0
2018-Jul-20 02:59N 38°42' W 009°10'0 0.0
2018-Jul-20 02:29N 38°42' W 009°10'0 0.0
2018-Jul-20 01:55N 38°42' W 009°10'0 0.0
2018-Jul-20 01:23N 38°42' W 009°10'0 0.0
2018-Jul-20 00:39N 38°42' W 009°10'0 0.0
2018-Jul-20 00:24N 38°42' W 009°10'0 0.0
2018-Jul-19 23:59N 38°42' W 009°10'0 0.0
2018-Jul-19 23:17N 38°42' W 009°10'0 0.0
2018-Jul-19 23:00N 38°42' W 009°10'0 0.0
2018-Jul-19 22:22N 38°42' W 009°10'0 0.0
2018-Jul-19 21:53N 38°42' W 009°10'0 0.0
2018-Jul-19 21:30N 38°42' W 009°10'0 0.0
2018-Jul-19 20:56N 38°42' W 009°10'0 0.0
2018-Jul-19 20:23N 38°42' W 009°10'0 0.0
2018-Jul-19 19:59N 38°42' W 009°10'0 0.0
2018-Jul-19 19:30N 38°42' W 009°10'0 0.0
2018-Jul-19 18:56N 38°42' W 009°10'0 0.0
2018-Jul-19 18:29N 38°42' W 009°10'0 0.0
2018-Jul-19 17:59N 38°42' W 009°10'0 0.0
2018-Jul-19 17:29N 38°42' W 009°10'0 0.0
2018-Jul-19 17:00N 38°42' W 009°10'0 0.0
2018-Jul-19 16:26N 38°42' W 009°10'0 0.0
2018-Jul-19 15:47N 38°42' W 009°10'0 0.0
2018-Jul-19 15:29N 38°42' W 009°10'0 0.0
2018-Jul-19 14:50N 38°42' W 009°10'0 0.0
2018-Jul-19 14:29N 38°42' W 009°10'0 0.0
2018-Jul-19 13:29N 38°42' W 009°10'0 0.0
2018-Jul-19 12:55N 38°42' W 009°10'0 0.0
2018-Jul-19 12:29N 38°42' W 009°10'0 0.0
2018-Jul-19 12:00N 38°42' W 009°10'0 0.0
2018-Jul-19 11:30N 38°42' W 009°10'0 0.0
2018-Jul-19 10:57N 38°42' W 009°10'0 0.0
2018-Jul-19 10:27N 38°42' W 009°10'0 0.0
2018-Jul-19 09:55N 38°42' W 009°10'0 0.0
2018-Jul-19 09:29N 38°42' W 009°10'0 0.0
2018-Jul-19 08:57N 38°42' W 009°10'0 0.0
2018-Jul-19 08:30N 38°42' W 009°10'0 0.0
2018-Jul-19 07:57N 38°42' W 009°10'0 0.0
2018-Jul-19 07:29N 38°42' W 009°10'0 0.0
2018-Jul-19 06:59N 38°42' W 009°10'0 0.0
2018-Jul-19 06:28N 38°42' W 009°10'0 0.0
2018-Jul-19 05:58N 38°42' W 009°10'0 0.0
2018-Jul-19 05:29N 38°42' W 009°10'0 0.0
2018-Jul-19 04:59N 38°42' W 009°10'0 0.0
2018-Jul-19 04:29N 38°42' W 009°10'0 0.0
2018-Jul-19 03:52N 38°42' W 009°10'0 0.0
2018-Jul-19 03:27N 38°42' W 009°10'0 0.0
2018-Jul-19 02:57N 38°42' W 009°10'0 0.0
2018-Jul-19 02:28N 38°42' W 009°10'0 0.0
2018-Jul-19 02:00N 38°42' W 009°10'0 0.0
2018-Jul-19 01:23N 38°42' W 009°10'0 0.0
2018-Jul-19 01:00N 38°42' W 009°10'0 0.0
2018-Jul-19 00:19N 38°42' W 009°10'0 0.0
2018-Jul-18 23:55N 38°42' W 009°10'0 0.0
2018-Jul-18 23:23N 38°42' W 009°10'0 0.0
2018-Jul-18 22:58N 38°42' W 009°10'0 0.0
2018-Jul-18 22:28N 38°42' W 009°10'0 0.0
2018-Jul-18 21:58N 38°42' W 009°10'0 0.0
2018-Jul-18 21:22N 38°42' W 009°10'0 0.0
2018-Jul-18 21:00N 38°42' W 009°10'0 0.0
2018-Jul-18 20:28N 38°42' W 009°10'0 0.0
2018-Jul-18 19:58N 38°42' W 009°10'0 0.0
2018-Jul-18 19:30N 38°42' W 009°10'0 0.0
2018-Jul-18 18:51N 38°42' W 009°10'0 0.0
2018-Jul-18 18:30N 38°42' W 009°10'0 0.0
2018-Jul-18 17:58N 38°42' W 009°10'0 0.0
2018-Jul-18 17:30N 38°42' W 009°10'0 0.0
2018-Jul-18 16:58N 38°42' W 009°10'0 0.0
2018-Jul-18 16:29N 38°42' W 009°10'0 0.0
2018-Jul-18 15:57N 38°42' W 009°10'0 0.0
2018-Jul-18 15:23N 38°42' W 009°10'0 0.0
2018-Jul-18 14:59N 38°42' W 009°10'0 0.0
2018-Jul-18 14:29N 38°42' W 009°10'0 0.0
2018-Jul-18 13:30N 38°42' W 009°10'0 0.0
2018-Jul-18 12:58N 38°42' W 009°10'0 0.0
2018-Jul-18 12:26N 38°42' W 009°10'0 0.0
2018-Jul-18 12:00N 38°42' W 009°10'0 0.0
2018-Jul-18 11:29N 38°42' W 009°10'0 0.0
2018-Jul-18 10:24N 38°42' W 009°10'0 0.0
2018-Jul-18 09:58N 38°42' W 009°10'0 0.0
2018-Jul-18 09:27N 38°42' W 009°10'0 0.0
2018-Jul-18 08:59N 38°42' W 009°10'0 0.0
2018-Jul-18 08:27N 38°42' W 009°10'0 0.0
2018-Jul-18 07:57N 38°42' W 009°10'0 0.0
2018-Jul-18 07:30N 38°42' W 009°10'0 0.0
2018-Jul-18 07:00N 38°42' W 009°10'0 0.0
2018-Jul-18 06:27N 38°42' W 009°10'0 0.0
2018-Jul-18 06:00N 38°42' W 009°10'0 0.0
2018-Jul-18 05:28N 38°42' W 009°10'0 0.0
2018-Jul-18 05:00N 38°42' W 009°10'0 0.0
2018-Jul-18 04:29N 38°42' W 009°10'0 0.0
2018-Jul-18 04:00N 38°42' W 009°10'0 0.0
2018-Jul-18 03:30N 38°42' W 009°10'0 0.0
2018-Jul-18 02:57N 38°42' W 009°10'0 0.0
2018-Jul-18 02:30N 38°42' W 009°10'0 0.0
2018-Jul-18 01:58N 38°42' W 009°10'0 0.0
2018-Jul-18 01:28N 38°42' W 009°10'0 0.0
2018-Jul-18 00:56N 38°42' W 009°10'0 0.0
2018-Jul-18 00:20N 38°42' W 009°10'0 0.0
2018-Jul-17 23:53N 38°42' W 009°10'0 0.0
2018-Jul-17 22:55N 38°42' W 009°10'0 0.0
2018-Jul-17 22:29N 38°42' W 009°10'0 0.0
2018-Jul-17 21:58N 38°42' W 009°10'0 0.0
2018-Jul-17 21:30N 38°42' W 009°10'0 0.0
2018-Jul-17 20:51N 38°42' W 009°10'0 0.0
2018-Jul-17 20:30N 38°42' W 009°10'0 0.0
2018-Jul-17 20:00N 38°42' W 009°10'0 0.0
2018-Jul-17 19:28N 38°42' W 009°10'0 0.0
2018-Jul-17 18:57N 38°42' W 009°10'0 0.0
2018-Jul-17 18:30N 38°42' W 009°10'0 0.0
2018-Jul-17 17:54N 38°42' W 009°10'0 0.0
2018-Jul-17 17:27N 38°42' W 009°10'0 0.0
2018-Jul-17 16:49N 38°42' W 009°10'0 0.0
2018-Jul-17 16:30N 38°42' W 009°10'0 0.0
2018-Jul-17 16:00N 38°42' W 009°10'0 0.0
2018-Jul-17 15:30N 38°42' W 009°10'0 0.0
2018-Jul-17 14:46N 38°42' W 009°10'0 0.0
2018-Jul-17 14:29N 38°42' W 009°10'0 0.0
2018-Jul-17 14:00N 38°42' W 009°10'0 0.0
2018-Jul-17 13:29N 38°42' W 009°10'0 0.0
2018-Jul-17 12:48N 38°42' W 009°10'0 0.0
2018-Jul-17 12:16N 38°42' W 009°10'0 0.0
2018-Jul-17 11:40N 38°42' W 009°10'0 0.0
2018-Jul-17 11:28N 38°42' W 009°10'0 0.0
2018-Jul-17 09:15N 38°42' W 009°10'0 0.0
2018-Jul-17 08:57N 38°42' W 009°10'0 0.0
2018-Jul-17 08:28N 38°42' W 009°10'0 0.0
2018-Jul-17 08:00N 38°42' W 009°10'0 0.0
2018-Jul-17 07:30N 38°42' W 009°10'0 0.0
2018-Jul-17 07:00N 38°42' W 009°10'0 0.0
2018-Jul-17 06:30N 38°42' W 009°10'0 0.0
2018-Jul-17 05:56N 38°42' W 009°10'0 0.0
2018-Jul-17 05:27N 38°42' W 009°10'0 0.0
2018-Jul-17 04:58N 38°42' W 009°10'0 0.0
2018-Jul-17 04:30N 38°42' W 009°10'0 0.0
2018-Jul-17 03:58N 38°42' W 009°10'0 0.0
2018-Jul-17 03:22N 38°42' W 009°10'0 0.0
2018-Jul-17 02:57N 38°42' W 009°10'0 0.0
2018-Jul-17 01:15N 38°42' W 009°10'0 0.0
2018-Jul-17 01:00N 38°42' W 009°10'0 0.0
2018-Jul-17 00:27N 38°42' W 009°10'0 0.0
2018-Jul-16 23:28N 38°42' W 009°10'0 0.0
2018-Jul-16 22:59N 38°42' W 009°10'0 0.0
2018-Jul-16 22:30N 38°42' W 009°10'0 0.0
2018-Jul-16 21:51N 38°42' W 009°10'0 0.0
2018-Jul-16 21:20N 38°42' W 009°10'0 0.0
2018-Jul-16 21:00N 38°42' W 009°10'0 0.0
2018-Jul-16 20:17N 38°42' W 009°10'0 0.0
2018-Jul-16 19:51N 38°42' W 009°10'0 0.0
2018-Jul-16 19:30N 38°42' W 009°10'0 0.0
2018-Jul-16 18:57N 38°42' W 009°10'0 0.0
2018-Jul-16 18:28N 38°42' W 009°10'0 0.0
2018-Jul-16 17:59N 38°42' W 009°10'0 0.0
2018-Jul-16 17:30N 38°42' W 009°10'0 0.0
2018-Jul-16 16:58N 38°42' W 009°10'0 0.0
2018-Jul-16 16:30N 38°42' W 009°10'0 0.0
2018-Jul-16 15:47N 38°42' W 009°10'0 0.0
2018-Jul-16 15:24N 38°42' W 009°10'0 0.0
2018-Jul-16 14:59N 38°42' W 009°10'0 0.0
2018-Jul-16 14:30N 38°42' W 009°10'0 0.0
2018-Jul-16 13:44N 38°42' W 009°10'0 0.0
2018-Jul-16 13:22N 38°42' W 009°10'0 0.0
2018-Jul-16 12:35N 38°42' W 009°10'0 0.0
2018-Jul-16 12:30N 38°42' W 009°10'0 0.0
2018-Jul-16 11:57N 38°42' W 009°10'0 0.0
2018-Jul-16 11:29N 38°42' W 009°10'0 0.0
2018-Jul-16 10:57N 38°42' W 009°10'0 0.0
2018-Jul-16 10:30N 38°42' W 009°10'0 0.0
2018-Jul-16 09:59N 38°42' W 009°10'0 0.0
2018-Jul-16 09:29N 38°42' W 009°10'0 0.0
2018-Jul-16 08:23N 38°42' W 009°10'0 0.0
2018-Jul-16 07:58N 38°42' W 009°10'0 0.0
2018-Jul-16 07:30N 38°42' W 009°10'0 0.0
2018-Jul-16 07:00N 38°42' W 009°10'0 0.0
2018-Jul-16 06:30N 38°42' W 009°10'0 0.0
2018-Jul-16 05:59N 38°42' W 009°10'0 0.0
2018-Jul-16 05:29N 38°42' W 009°10'0 0.0
2018-Jul-16 04:59N 38°42' W 009°10'0 0.0
2018-Jul-16 04:30N 38°42' W 009°10'0 0.0
2018-Jul-16 03:57N 38°42' W 009°10'0 0.0
2018-Jul-16 03:30N 38°42' W 009°10'0 0.0
2018-Jul-16 02:54N 38°42' W 009°10'0 0.0
2018-Jul-16 02:30N 38°42' W 009°10'0 0.0
2018-Jul-16 02:00N 38°42' W 009°10'0 0.0
2018-Jul-16 01:28N 38°42' W 009°10'0 0.0
2018-Jul-16 01:00N 38°42' W 009°10'0 0.0
2018-Jul-16 00:30N 38°42' W 009°10'0 0.0
2018-Jul-15 23:27N 38°42' W 009°10'0 0.0
2018-Jul-15 22:29N 38°42' W 009°10'0 0.0
2018-Jul-15 21:49N 38°42' W 009°10'0 0.0
2018-Jul-15 21:29N 38°42' W 009°10'0 0.0
2018-Jul-15 20:58N 38°42' W 009°10'0 0.0
2018-Jul-15 20:23N 38°42' W 009°10'0 0.0
2018-Jul-15 19:58N 38°42' W 009°10'0 0.0
2018-Jul-15 19:30N 38°42' W 009°10'0 0.0
2018-Jul-15 18:54N 38°42' W 009°10'0 0.0
2018-Jul-15 18:29N 38°42' W 009°10'0 0.0
2018-Jul-15 18:00N 38°42' W 009°10'0 0.0
2018-Jul-15 17:29N 38°42' W 009°10'0 0.0
2018-Jul-15 16:58N 38°42' W 009°10'0 0.0
2018-Jul-15 16:30N 38°42' W 009°10'0 0.0
2018-Jul-15 16:00N 38°42' W 009°10'0 0.0
2018-Jul-15 15:29N 38°42' W 009°10'0 0.0
2018-Jul-15 15:00N 38°42' W 009°10'0 0.0
2018-Jul-15 14:22N 38°42' W 009°10'0 0.0
2018-Jul-15 13:51N 38°42' W 009°10'0 0.0
2018-Jul-15 13:25N 38°42' W 009°10'0 0.0
2018-Jul-15 13:00N 38°42' W 009°10'0 0.0
2018-Jul-15 12:29N 38°42' W 009°10'0 0.0
2018-Jul-15 11:58N 38°42' W 009°10'0 0.0
2018-Jul-15 11:30N 38°42' W 009°10'0 0.0
2018-Jul-15 10:57N 38°42' W 009°10'0 0.0
2018-Jul-15 10:30N 38°42' W 009°10'0 0.0
2018-Jul-15 10:00N 38°42' W 009°10'0 0.0
2018-Jul-15 09:28N 38°42' W 009°10'0 0.0
2018-Jul-15 08:59N 38°42' W 009°10'0 0.0
2018-Jul-15 08:30N 38°42' W 009°10'0 0.0
2018-Jul-15 08:00N 38°42' W 009°10'0 0.0
2018-Jul-15 07:30N 38°42' W 009°10'0 0.0
2018-Jul-15 07:00N 38°42' W 009°10'0 0.0
2018-Jul-15 06:27N 38°42' W 009°10'0 0.0
2018-Jul-15 05:59N 38°42' W 009°10'0 0.0
2018-Jul-15 05:30N 38°42' W 009°10'0 0.0
2018-Jul-15 05:00N 38°42' W 009°10'0 0.0
2018-Jul-15 04:23N 38°42' W 009°10'0 0.0
2018-Jul-15 03:59N 38°42' W 009°10'0 0.0
2018-Jul-15 03:25N 38°42' W 009°10'0 0.0
2018-Jul-15 02:57N 38°42' W 009°10'0 0.0
2018-Jul-15 02:30N 38°42' W 009°10'0 0.0
2018-Jul-15 01:59N 38°42' W 009°10'0 0.0
2018-Jul-15 01:24N 38°42' W 009°10'0 0.0
2018-Jul-15 01:00N 38°42' W 009°10'0 0.0
2018-Jul-15 00:29N 38°42' W 009°10'0 0.0
2018-Jul-15 00:00N 38°42' W 009°10'0 0.0
2018-Jul-14 23:29N 38°42' W 009°10'0 0.0
2018-Jul-14 22:57N 38°42' W 009°10'0 0.0
2018-Jul-14 22:27N 38°42' W 009°10'0 0.0
2018-Jul-14 22:00N 38°42' W 009°10'0 0.0
2018-Jul-14 21:28N 38°42' W 009°10'0 0.0
2018-Jul-14 21:00N 38°42' W 009°10'0 0.0
2018-Jul-14 20:29N 38°42' W 009°10'0 0.0
2018-Jul-14 19:31N 38°42' W 009°10'0 0.0
2018-Jul-14 19:30N 38°42' W 009°10'0 0.0
2018-Jul-14 19:00N 38°42' W 009°10'0 0.0
2018-Jul-14 18:28N 38°42' W 009°10'0 0.0
2018-Jul-14 17:57N 38°42' W 009°10'0 0.0
2018-Jul-14 17:07N 38°42' W 009°10'0 0.0
2018-Jul-14 16:59N 38°42' W 009°10'0 0.0
2018-Jul-14 16:28N 38°42' W 009°10'0 0.0
2018-Jul-14 15:58N 38°42' W 009°10'0 0.0
2018-Jul-14 15:30N 38°42' W 009°10'2 3.8
2018-Jul-14 15:00N 38°42' W 009°07'2 2.3
2018-Jul-14 14:18N 38°44' W 009°06'2 2.0
2018-Jul-14 13:30N 38°42' W 009°07'3 5.3
2018-Jul-14 13:00N 38°42' W 009°11'2 3.6
2018-Jul-14 12:29N 38°41' W 009°13'2 3.6
2018-Jul-14 12:00N 38°42' W 009°11'1 1.3
2018-Jul-14 11:29N 38°42' W 009°10'0 0.0
2018-Jul-14 11:00N 38°42' W 009°10'0 0.0
2018-Jul-14 10:28N 38°42' W 009°10'0 0.0
2018-Jul-14 10:00N 38°42' W 009°10'0 0.0
2018-Jul-14 09:29N 38°42' W 009°10'0 0.0
2018-Jul-14 09:00N 38°42' W 009°10'0 0.0
2018-Jul-14 08:30N 38°42' W 009°10'0 0.0
2018-Jul-14 07:54N 38°42' W 009°10'0 0.0
2018-Jul-14 07:28N 38°42' W 009°10'0 0.0
2018-Jul-14 06:56N 38°42' W 009°10'0 0.0
2018-Jul-14 06:30N 38°42' W 009°10'0 0.0
2018-Jul-14 06:00N 38°42' W 009°10'0 0.0
2018-Jul-14 05:30N 38°42' W 009°10'0 0.0
2018-Jul-14 04:59N 38°42' W 009°10'0 0.0
2018-Jul-14 04:24N 38°42' W 009°10'0 0.0
2018-Jul-14 04:00N 38°42' W 009°10'0 0.0
2018-Jul-14 03:29N 38°42' W 009°10'0 0.0
2018-Jul-14 02:58N 38°42' W 009°10'0 0.0
2018-Jul-14 02:30N 38°42' W 009°10'0 0.0
2018-Jul-14 02:00N 38°42' W 009°10'0 0.0
2018-Jul-14 01:23N 38°42' W 009°10'0 0.0
2018-Jul-14 01:00N 38°42' W 009°10'0 0.0
2018-Jul-14 00:27N 38°42' W 009°10'0 0.0
2018-Jul-13 23:57N 38°42' W 009°10'0 0.0
2018-Jul-13 23:30N 38°42' W 009°10'0 0.0
2018-Jul-13 22:55N 38°42' W 009°10'0 0.0
2018-Jul-13 22:27N 38°42' W 009°10'0 0.0
2018-Jul-13 21:56N 38°42' W 009°10'0 0.0
2018-Jul-13 21:30N 38°42' W 009°10'0 0.0
2018-Jul-13 21:00N 38°42' W 009°10'0 0.0
2018-Jul-13 20:29N 38°42' W 009°10'0 0.0
2018-Jul-13 19:59N 38°42' W 009°10'0 0.0
2018-Jul-13 19:30N 38°42' W 009°10'0 0.0
2018-Jul-13 19:00N 38°42' W 009°10'0 0.0
2018-Jul-13 18:27N 38°42' W 009°10'0 0.0
2018-Jul-13 18:00N 38°42' W 009°10'0 0.7
2018-Jul-13 17:29N 38°42' W 009°10'1 2.6
2018-Jul-13 16:59N 38°42' W 009°12'1 2.6
2018-Jul-13 16:29N 38°41' W 009°14'2 3.2
2018-Jul-13 16:00N 38°42' W 009°12'1 2.3
2018-Jul-13 15:24N 38°42' W 009°10'0 0.0
2018-Jul-13 14:58N 38°42' W 009°10'0 0.0
2018-Jul-13 13:38N 38°42' W 009°10'0 0.0
2018-Jul-13 13:19N 38°42' W 009°10'0 0.0
2018-Jul-13 12:58N 38°42' W 009°10'0 0.0
2018-Jul-13 11:59N 38°42' W 009°10'0 0.0
2018-Jul-13 11:28N 38°42' W 009°10'0 0.0
2018-Jul-13 10:45N 38°42' W 009°10'0 0.0
2018-Jul-13 10:28N 38°42' W 009°10'0 0.0
2018-Jul-13 09:58N 38°42' W 009°10'0 0.0
2018-Jul-13 09:30N 38°42' W 009°10'0 0.0
2018-Jul-13 08:59N 38°42' W 009°10'0 0.0
2018-Jul-13 08:21N 38°42' W 009°10'0 0.0
2018-Jul-13 07:56N 38°42' W 009°10'0 0.0
2018-Jul-13 07:16N 38°42' W 009°10'0 0.0
2018-Jul-13 07:00N 38°42' W 009°10'0 0.0
2018-Jul-13 06:17N 38°42' W 009°10'0 0.0
2018-Jul-13 05:58N 38°42' W 009°10'0 0.0
2018-Jul-13 05:29N 38°42' W 009°10'0 0.0
2018-Jul-13 04:57N 38°42' W 009°10'0 0.0
2018-Jul-13 04:00N 38°42' W 009°10'0 0.0
2018-Jul-13 03:30N 38°42' W 009°10'0 0.0
2018-Jul-13 02:59N 38°42' W 009°10'0 0.0
2018-Jul-13 02:29N 38°42' W 009°10'0 0.0
2018-Jul-13 01:52N 38°42' W 009°10'0 0.0
2018-Jul-13 01:29N 38°42' W 009°10'0 0.0
2018-Jul-13 00:59N 38°42' W 009°10'0 0.0
2018-Jul-13 00:26N 38°42' W 009°10'0 0.0
2018-Jul-12 23:56N 38°42' W 009°10'0 0.0
2018-Jul-12 23:26N 38°42' W 009°10'0 0.0
2018-Jul-12 23:00N 38°42' W 009°10'0 0.0
2018-Jul-12 22:27N 38°42' W 009°10'0 0.0
2018-Jul-12 22:01N 38°42' W 009°10'0 0.0
2018-Jul-12 21:28N 38°42' W 009°10'0 0.0
2018-Jul-12 20:59N 38°42' W 009°10'  
Track history (hours):
 
Tides and Currents Weather Stations Pressure Air Temp Water Temp Dewpoint Dewpoint Depression Visibility Wind Speed Wind Dir Waves Ship Positions

Westenwind

Last reported at 2018-Jul-22 20:57 UTC. Time now 2018-Jul-22 21:43 UTC.
Position N 38°42' W 009°10'.

; draft 0.2 m.

Type: Pleasure craft. MMSI: 244860072.

Date/timePositionNaut miles runAvg speedWind from/ knotsBaromVisibWave heightAir tempDewpointWater temp
2018-Jul-22 20:57N 38°42' W 009°10'0 0.0
2018-Jul-22 20:19N 38°42' W 009°10'0 0.0
2018-Jul-22 20:00N 38°42' W 009°10'0 0.0
2018-Jul-22 19:12N 38°42' W 009°10'0 0.0
2018-Jul-22 18:53N 38°42' W 009°10'0 0.0
2018-Jul-22 18:29N 38°42' W 009°10'0 0.0
2018-Jul-22 17:59N 38°42' W 009°10'0 0.0
2018-Jul-22 17:28N 38°42' W 009°10'0 0.0
2018-Jul-22 16:59N 38°42' W 009°10'0 0.0
2018-Jul-22 16:22N 38°42' W 009°10'0 0.0
2018-Jul-22 15:56N 38°42' W 009°10'0 0.0
2018-Jul-22 14:59N 38°42' W 009°10'0 0.0
2018-Jul-22 14:30N 38°42' W 009°10'0 0.0
2018-Jul-22 13:52N 38°42' W 009°10'0 0.0
2018-Jul-22 13:18N 38°42' W 009°10'0 0.0
2018-Jul-22 13:00N 38°42' W 009°10'0 0.0
2018-Jul-22 12:29N 38°42' W 009°10'0 0.0
2018-Jul-22 12:00N 38°42' W 009°10'0 0.0
2018-Jul-22 11:27N 38°42' W 009°10'0 0.0
2018-Jul-22 10:59N 38°42' W 009°10'0 0.0
2018-Jul-22 10:27N 38°42' W 009°10'0 0.0
2018-Jul-22 10:00N 38°42' W 009°10'0 0.0
2018-Jul-22 09:25N 38°42' W 009°10'0 0.0
2018-Jul-22 09:00N 38°42' W 009°10'0 0.0
2018-Jul-22 08:22N 38°42' W 009°10'0 0.0
2018-Jul-22 07:56N 38°42' W 009°10'0 0.0
2018-Jul-22 07:30N 38°42' W 009°10'0 0.0
2018-Jul-22 06:53N 38°42' W 009°10'0 0.0
2018-Jul-22 06:29N 38°42' W 009°10'0 0.0
2018-Jul-22 05:57N 38°42' W 009°10'0 0.0
2018-Jul-22 05:27N 38°42' W 009°10'0 0.0
2018-Jul-22 04:54N 38°42' W 009°10'0 0.0
2018-Jul-22 04:30N 38°42' W 009°10'0 0.0
2018-Jul-22 03:51N 38°42' W 009°10'0 0.0
2018-Jul-22 03:27N 38°42' W 009°10'0 0.0
2018-Jul-22 02:41N 38°42' W 009°10'0 0.0
2018-Jul-22 02:21N 38°42' W 009°10'0 0.0
2018-Jul-22 02:00N 38°42' W 009°10'0 0.0
2018-Jul-22 01:30N 38°42' W 009°10'0 0.0
2018-Jul-22 00:57N 38°42' W 009°10'0 0.0
2018-Jul-22 00:28N 38°42' W 009°10'0 0.0
2018-Jul-21 23:53N 38°42' W 009°10'0 0.0
2018-Jul-21 23:29N 38°42' W 009°10'0 0.0
2018-Jul-21 22:57N 38°42' W 009°10'0 0.0
2018-Jul-21 22:28N 38°42' W 009°10'0 0.0
2018-Jul-21 21:55N 38°42' W 009°10'0 0.0
2018-Jul-21 21:25N 38°42' W 009°10'0 0.0
2018-Jul-21 20:58N 38°42' W 009°10'0 0.0
2018-Jul-21 20:23N 38°42' W 009°10'0 0.0
2018-Jul-21 19:52N 38°42' W 009°10'0 0.0
2018-Jul-21 19:30N 38°42' W 009°10'0 0.0
2018-Jul-21 18:57N 38°42' W 009°10'0 0.0
2018-Jul-21 18:11N 38°42' W 009°10'0 0.0
2018-Jul-21 17:55N 38°42' W 009°10'0 0.0
2018-Jul-21 17:30N 38°42' W 009°10'0 0.8
2018-Jul-21 17:00N 38°42' W 009°09'2 4.7
2018-Jul-21 16:30N 38°41' W 009°12'0 0.6
2018-Jul-21 16:00N 38°41' W 009°12'2 4.8
2018-Jul-21 15:30N 38°42' W 009°09'1 1.8
2018-Jul-21 15:00N 38°42' W 009°08'1 2.6
2018-Jul-21 14:30N 38°42' W 009°10'0 0.0
2018-Jul-21 13:27N 38°42' W 009°10'0 0.0
2018-Jul-21 12:59N 38°42' W 009°10'1 1.3
2018-Jul-21 12:30N 38°42' W 009°09'1 2.4
2018-Jul-21 11:59N 38°41' W 009°11'1 2.9
2018-Jul-21 11:30N 38°41' W 009°12'0 0.4
2018-Jul-21 10:59N 38°41' W 009°12'2 4.8
2018-Jul-21 10:30N 38°42' W 009°10'0 0.7
2018-Jul-21 10:00N 38°42' W 009°10'0 0.0
2018-Jul-21 09:27N 38°42' W 009°10'0 0.0
2018-Jul-21 08:56N 38°42' W 009°10'0 0.0
2018-Jul-21 08:29N 38°42' W 009°10'0 0.0
2018-Jul-21 08:00N 38°42' W 009°10'0 0.0
2018-Jul-21 07:24N 38°42' W 009°10'0 0.0
2018-Jul-21 06:57N 38°42' W 009°10'0 0.0
2018-Jul-21 06:26N 38°42' W 009°10'0 0.0
2018-Jul-21 06:00N 38°42' W 009°10'0 0.0
2018-Jul-21 05:29N 38°42' W 009°10'0 0.0
2018-Jul-21 04:37N 38°42' W 009°10'0 0.0
2018-Jul-21 04:25N 38°42' W 009°10'0 0.0
2018-Jul-21 03:57N 38°42' W 009°10'0 0.0
2018-Jul-21 00:49N 38°42' W 009°10'0 0.0
2018-Jul-21 00:17N 38°42' W 009°10'0 0.0
2018-Jul-20 23:55N 38°42' W 009°10'0 0.0
2018-Jul-20 23:22N 38°42' W 009°10'0 0.0
2018-Jul-20 22:56N 38°42' W 009°10'0 0.0
2018-Jul-20 22:16N 38°42' W 009°10'0 0.0
2018-Jul-20 21:54N 38°42' W 009°10'0 0.0
2018-Jul-20 21:25N 38°42' W 009°10'0 0.0
2018-Jul-20 20:59N 38°42' W 009°10'0 0.0
2018-Jul-20 20:20N 38°42' W 009°10'0 0.0
2018-Jul-20 19:54N 38°42' W 009°10'0 0.0
2018-Jul-20 19:25N 38°42' W 009°10'0 0.0
2018-Jul-20 18:42N 38°42' W 009°10'0 0.0
2018-Jul-20 18:19N 38°42' W 009°10'0 0.0
2018-Jul-20 17:54N 38°42' W 009°10'0 0.0
2018-Jul-20 17:30N 38°42' W 009°10'0 0.0
2018-Jul-20 16:59N 38°42' W 009°10'0 0.0
2018-Jul-20 16:30N 38°42' W 009°10'0 0.0
2018-Jul-20 15:51N 38°42' W 009°10'0 0.0
2018-Jul-20 15:29N 38°42' W 009°10'0 0.0
2018-Jul-20 15:00N 38°42' W 009°10'0 0.0
2018-Jul-20 14:30N 38°42' W 009°10'0 0.0
2018-Jul-20 13:59N 38°42' W 009°10'0 0.0
2018-Jul-20 13:25N 38°42' W 009°10'0 0.0
2018-Jul-20 13:00N 38°42' W 009°10'0 0.0
2018-Jul-20 12:18N 38°42' W 009°10'0 0.0
2018-Jul-20 11:58N 38°42' W 009°10'0 0.0
2018-Jul-20 10:04N 38°42' W 009°10'0 0.0
2018-Jul-20 09:53N 38°42' W 009°10'0 0.0
2018-Jul-20 09:30N 38°42' W 009°10'0 0.0
2018-Jul-20 08:51N 38°42' W 009°10'0 0.0
2018-Jul-20 07:56N 38°42' W 009°10'0 0.0
2018-Jul-20 07:29N 38°42' W 009°10'0 0.0
2018-Jul-20 06:40N 38°42' W 009°10'0 0.0
2018-Jul-20 06:22N 38°42' W 009°10'0 0.0
2018-Jul-20 05:33N 38°42' W 009°10'0 0.0
2018-Jul-20 04:52N 38°42' W 009°10'0 0.0
2018-Jul-20 04:30N 38°42' W 009°10'0 0.0
2018-Jul-20 03:59N 38°42' W 009°10'0 0.0
2018-Jul-20 03:23N 38°42' W 009°10'0 0.0
2018-Jul-20 02:59N 38°42' W 009°10'0 0.0
2018-Jul-20 02:29N 38°42' W 009°10'0 0.0
2018-Jul-20 01:55N 38°42' W 009°10'0 0.0
2018-Jul-20 01:23N 38°42' W 009°10'0 0.0
2018-Jul-20 00:39N 38°42' W 009°10'0 0.0
2018-Jul-20 00:24N 38°42' W 009°10'0 0.0
2018-Jul-19 23:59N 38°42' W 009°10'0 0.0
2018-Jul-19 23:17N 38°42' W 009°10'0 0.0
2018-Jul-19 23:00N 38°42' W 009°10'0 0.0
2018-Jul-19 22:22N 38°42' W 009°10'0 0.0
2018-Jul-19 21:53N 38°42' W 009°10'0 0.0
2018-Jul-19 21:30N 38°42' W 009°10'0 0.0
2018-Jul-19 20:56N 38°42' W 009°10'0 0.0
2018-Jul-19 20:23N 38°42' W 009°10'0 0.0
2018-Jul-19 19:59N 38°42' W 009°10'0 0.0
2018-Jul-19 19:30N 38°42' W 009°10'0 0.0
2018-Jul-19 18:56N 38°42' W 009°10'0 0.0
2018-Jul-19 18:29N 38°42' W 009°10'0 0.0
2018-Jul-19 17:59N 38°42' W 009°10'0 0.0
2018-Jul-19 17:29N 38°42' W 009°10'0 0.0
2018-Jul-19 17:00N 38°42' W 009°10'0 0.0
2018-Jul-19 16:26N 38°42' W 009°10'0 0.0
2018-Jul-19 15:47N 38°42' W 009°10'0 0.0
2018-Jul-19 15:29N 38°42' W 009°10'0 0.0
2018-Jul-19 14:50N 38°42' W 009°10'0 0.0
2018-Jul-19 14:29N 38°42' W 009°10'0 0.0
2018-Jul-19 13:29N 38°42' W 009°10'0 0.0
2018-Jul-19 12:55N 38°42' W 009°10'0 0.0
2018-Jul-19 12:29N 38°42' W 009°10'0 0.0
2018-Jul-19 12:00N 38°42' W 009°10'0 0.0
2018-Jul-19 11:30N 38°42' W 009°10'0 0.0
2018-Jul-19 10:57N 38°42' W 009°10'0 0.0
2018-Jul-19 10:27N 38°42' W 009°10'0 0.0
2018-Jul-19 09:55N 38°42' W 009°10'0 0.0
2018-Jul-19 09:29N 38°42' W 009°10'0 0.0
2018-Jul-19 08:57N 38°42' W 009°10'0 0.0
2018-Jul-19 08:30N 38°42' W 009°10'0 0.0
2018-Jul-19 07:57N 38°42' W 009°10'0 0.0
2018-Jul-19 07:29N 38°42' W 009°10'0 0.0
2018-Jul-19 06:59N 38°42' W 009°10'0 0.0
2018-Jul-19 06:28N 38°42' W 009°10'0 0.0
2018-Jul-19 05:58N 38°42' W 009°10'0 0.0
2018-Jul-19 05:29N 38°42' W 009°10'0 0.0
2018-Jul-19 04:59N 38°42' W 009°10'0 0.0
2018-Jul-19 04:29N 38°42' W 009°10'0 0.0
2018-Jul-19 03:52N 38°42' W 009°10'0 0.0
2018-Jul-19 03:27N 38°42' W 009°10'0 0.0
2018-Jul-19 02:57N 38°42' W 009°10'0 0.0
2018-Jul-19 02:28N 38°42' W 009°10'0 0.0
2018-Jul-19 02:00N 38°42' W 009°10'0 0.0
2018-Jul-19 01:23N 38°42' W 009°10'0 0.0
2018-Jul-19 01:00N 38°42' W 009°10'0 0.0
2018-Jul-19 00:19N 38°42' W 009°10'0 0.0
2018-Jul-18 23:55N 38°42' W 009°10'0 0.0
2018-Jul-18 23:23N 38°42' W 009°10'0 0.0
2018-Jul-18 22:58N 38°42' W 009°10'0 0.0
2018-Jul-18 22:28N 38°42' W 009°10'0 0.0
2018-Jul-18 21:58N 38°42' W 009°10'0 0.0
2018-Jul-18 21:22N 38°42' W 009°10'0 0.0
2018-Jul-18 21:00N 38°42' W 009°10'0 0.0
2018-Jul-18 20:28N 38°42' W 009°10'0 0.0
2018-Jul-18 19:58N 38°42' W 009°10'0 0.0
2018-Jul-18 19:30N 38°42' W 009°10'0 0.0
2018-Jul-18 18:51N 38°42' W 009°10'0 0.0
2018-Jul-18 18:30N 38°42' W 009°10'0 0.0
2018-Jul-18 17:58N 38°42' W 009°10'0 0.0
2018-Jul-18 17:30N 38°42' W 009°10'0 0.0
2018-Jul-18 16:58N 38°42' W 009°10'0 0.0
2018-Jul-18 16:29N 38°42' W 009°10'0 0.0
2018-Jul-18 15:57N 38°42' W 009°10'0 0.0
2018-Jul-18 15:23N 38°42' W 009°10'0 0.0
2018-Jul-18 14:59N 38°42' W 009°10'0 0.0
2018-Jul-18 14:29N 38°42' W 009°10'0 0.0
2018-Jul-18 13:30N 38°42' W 009°10'0 0.0
2018-Jul-18 12:58N 38°42' W 009°10'0 0.0
2018-Jul-18 12:26N 38°42' W 009°10'0 0.0
2018-Jul-18 12:00N 38°42' W 009°10'0 0.0
2018-Jul-18 11:29N 38°42' W 009°10'0 0.0
2018-Jul-18 10:24N 38°42' W 009°10'0 0.0
2018-Jul-18 09:58N 38°42' W 009°10'0 0.0
2018-Jul-18 09:27N 38°42' W 009°10'0 0.0
2018-Jul-18 08:59N 38°42' W 009°10'0 0.0
2018-Jul-18 08:27N 38°42' W 009°10'0 0.0
2018-Jul-18 07:57N 38°42' W 009°10'0 0.0
2018-Jul-18 07:30N 38°42' W 009°10'0 0.0
2018-Jul-18 07:00N 38°42' W 009°10'0 0.0
2018-Jul-18 06:27N 38°42' W 009°10'0 0.0
2018-Jul-18 06:00N 38°42' W 009°10'0 0.0
2018-Jul-18 05:28N 38°42' W 009°10'0 0.0
2018-Jul-18 05:00N 38°42' W 009°10'0 0.0
2018-Jul-18 04:29N 38°42' W 009°10'0 0.0
2018-Jul-18 04:00N 38°42' W 009°10'0 0.0
2018-Jul-18 03:30N 38°42' W 009°10'0 0.0
2018-Jul-18 02:57N 38°42' W 009°10'0 0.0
2018-Jul-18 02:30N 38°42' W 009°10'0 0.0
2018-Jul-18 01:58N 38°42' W 009°10'0 0.0
2018-Jul-18 01:28N 38°42' W 009°10'0 0.0
2018-Jul-18 00:56N 38°42' W 009°10'0 0.0
2018-Jul-18 00:20N 38°42' W 009°10'0 0.0
2018-Jul-17 23:53N 38°42' W 009°10'0 0.0
2018-Jul-17 22:55N 38°42' W 009°10'0 0.0
2018-Jul-17 22:29N 38°42' W 009°10'0 0.0
2018-Jul-17 21:58N 38°42' W 009°10'0 0.0
2018-Jul-17 21:30N 38°42' W 009°10'0 0.0
2018-Jul-17 20:51N 38°42' W 009°10'0 0.0
2018-Jul-17 20:30N 38°42' W 009°10'0 0.0
2018-Jul-17 20:00N 38°42' W 009°10'0 0.0
2018-Jul-17 19:28N 38°42' W 009°10'0 0.0
2018-Jul-17 18:57N 38°42' W 009°10'0 0.0
2018-Jul-17 18:30N 38°42' W 009°10'0 0.0
2018-Jul-17 17:54N 38°42' W 009°10'0 0.0
2018-Jul-17 17:27N 38°42' W 009°10'0 0.0
2018-Jul-17 16:49N 38°42' W 009°10'0 0.0
2018-Jul-17 16:30N 38°42' W 009°10'0 0.0
2018-Jul-17 16:00N 38°42' W 009°10'0 0.0
2018-Jul-17 15:30N 38°42' W 009°10'0 0.0
2018-Jul-17 14:46N 38°42' W 009°10'0 0.0
2018-Jul-17 14:29N 38°42' W 009°10'0 0.0
2018-Jul-17 14:00N 38°42' W 009°10'0 0.0
2018-Jul-17 13:29N 38°42' W 009°10'0 0.0
2018-Jul-17 12:48N 38°42' W 009°10'0 0.0
2018-Jul-17 12:16N 38°42' W 009°10'0 0.0
2018-Jul-17 11:40N 38°42' W 009°10'0 0.0
2018-Jul-17 11:28N 38°42' W 009°10'0 0.0
2018-Jul-17 09:15N 38°42' W 009°10'0 0.0
2018-Jul-17 08:57N 38°42' W 009°10'0 0.0
2018-Jul-17 08:28N 38°42' W 009°10'0 0.0
2018-Jul-17 08:00N 38°42' W 009°10'0 0.0
2018-Jul-17 07:30N 38°42' W 009°10'0 0.0
2018-Jul-17 07:00N 38°42' W 009°10'0 0.0
2018-Jul-17 06:30N 38°42' W 009°10'0 0.0
2018-Jul-17 05:56N 38°42' W 009°10'0 0.0
2018-Jul-17 05:27N 38°42' W 009°10'0 0.0
2018-Jul-17 04:58N 38°42' W 009°10'0 0.0
2018-Jul-17 04:30N 38°42' W 009°10'0 0.0
2018-Jul-17 03:58N 38°42' W 009°10'0 0.0
2018-Jul-17 03:22N 38°42' W 009°10'0 0.0
2018-Jul-17 02:57N 38°42' W 009°10'0 0.0
2018-Jul-17 01:15N 38°42' W 009°10'0 0.0
2018-Jul-17 01:00N 38°42' W 009°10'0 0.0
2018-Jul-17 00:27N 38°42' W 009°10'0 0.0
2018-Jul-16 23:28N 38°42' W 009°10'0 0.0
2018-Jul-16 22:59N 38°42' W 009°10'0 0.0
2018-Jul-16 22:30N 38°42' W 009°10'0 0.0
2018-Jul-16 21:51N 38°42' W 009°10'0 0.0
2018-Jul-16 21:20N 38°42' W 009°10'0 0.0
2018-Jul-16 21:00N 38°42' W 009°10'0 0.0
2018-Jul-16 20:17N 38°42' W 009°10'0 0.0
2018-Jul-16 19:51N 38°42' W 009°10'0 0.0
2018-Jul-16 19:30N 38°42' W 009°10'0 0.0
2018-Jul-16 18:57N 38°42' W 009°10'0 0.0
2018-Jul-16 18:28N 38°42' W 009°10'0 0.0
2018-Jul-16 17:59N 38°42' W 009°10'0 0.0
2018-Jul-16 17:30N 38°42' W 009°10'0 0.0
2018-Jul-16 16:58N 38°42' W 009°10'0 0.0
2018-Jul-16 16:30N 38°42' W 009°10'0 0.0
2018-Jul-16 15:47N 38°42' W 009°10'0 0.0
2018-Jul-16 15:24N 38°42' W 009°10'0 0.0
2018-Jul-16 14:59N 38°42' W 009°10'0 0.0
2018-Jul-16 14:30N 38°42' W 009°10'0 0.0
2018-Jul-16 13:44N 38°42' W 009°10'0 0.0
2018-Jul-16 13:22N 38°42' W 009°10'0 0.0
2018-Jul-16 12:35N 38°42' W 009°10'0 0.0
2018-Jul-16 12:30N 38°42' W 009°10'0 0.0
2018-Jul-16 11:57N 38°42' W 009°10'0 0.0
2018-Jul-16 11:29N 38°42' W 009°10'0 0.0
2018-Jul-16 10:57N 38°42' W 009°10'0 0.0
2018-Jul-16 10:30N 38°42' W 009°10'0 0.0
2018-Jul-16 09:59N 38°42' W 009°10'0 0.0
2018-Jul-16 09:29N 38°42' W 009°10'0 0.0
2018-Jul-16 08:23N 38°42' W 009°10'0 0.0
2018-Jul-16 07:58N 38°42' W 009°10'0 0.0
2018-Jul-16 07:30N 38°42' W 009°10'0 0.0
2018-Jul-16 07:00N 38°42' W 009°10'0 0.0
2018-Jul-16 06:30N 38°42' W 009°10'0 0.0
2018-Jul-16 05:59N 38°42' W 009°10'0 0.0
2018-Jul-16 05:29N 38°42' W 009°10'0 0.0
2018-Jul-16 04:59N 38°42' W 009°10'0 0.0
2018-Jul-16 04:30N 38°42' W 009°10'0 0.0
2018-Jul-16 03:57N 38°42' W 009°10'0 0.0
2018-Jul-16 03:30N 38°42' W 009°10'0 0.0
2018-Jul-16 02:54N 38°42' W 009°10'0 0.0
2018-Jul-16 02:30N 38°42' W 009°10'0 0.0
2018-Jul-16 02:00N 38°42' W 009°10'0 0.0
2018-Jul-16 01:28N 38°42' W 009°10'0 0.0
2018-Jul-16 01:00N 38°42' W 009°10'0 0.0
2018-Jul-16 00:30N 38°42' W 009°10'0 0.0
2018-Jul-15 23:27N 38°42' W 009°10'0 0.0
2018-Jul-15 22:29N 38°42' W 009°10'0 0.0
2018-Jul-15 21:49N 38°42' W 009°10'0 0.0
2018-Jul-15 21:29N 38°42' W 009°10'0 0.0
2018-Jul-15 20:58N 38°42' W 009°10'0 0.0
2018-Jul-15 20:23N 38°42' W 009°10'0 0.0
2018-Jul-15 19:58N 38°42' W 009°10'0 0.0
2018-Jul-15 19:30N 38°42' W 009°10'0 0.0
2018-Jul-15 18:54N 38°42' W 009°10'0 0.0
2018-Jul-15 18:29N 38°42' W 009°10'0 0.0
2018-Jul-15 18:00N 38°42' W 009°10'0 0.0
2018-Jul-15 17:29N 38°42' W 009°10'0 0.0
2018-Jul-15 16:58N 38°42' W 009°10'0 0.0
2018-Jul-15 16:30N 38°42' W 009°10'0 0.0
2018-Jul-15 16:00N 38°42' W 009°10'0 0.0
2018-Jul-15 15:29N 38°42' W 009°10'0 0.0
2018-Jul-15 15:00N 38°42' W 009°10'0 0.0
2018-Jul-15 14:22N 38°42' W 009°10'0 0.0
2018-Jul-15 13:51N 38°42' W 009°10'0 0.0
2018-Jul-15 13:25N 38°42' W 009°10'0 0.0
2018-Jul-15 13:00N 38°42' W 009°10'0 0.0
2018-Jul-15 12:29N 38°42' W 009°10'0 0.0
2018-Jul-15 11:58N 38°42' W 009°10'0 0.0
2018-Jul-15 11:30N 38°42' W 009°10'0 0.0
2018-Jul-15 10:57N 38°42' W 009°10'0 0.0
2018-Jul-15 10:30N 38°42' W 009°10'0 0.0
2018-Jul-15 10:00N 38°42' W 009°10'0 0.0
2018-Jul-15 09:28N 38°42' W 009°10'0 0.0
2018-Jul-15 08:59N 38°42' W 009°10'0 0.0
2018-Jul-15 08:30N 38°42' W 009°10'0 0.0
2018-Jul-15 08:00N 38°42' W 009°10'0 0.0
2018-Jul-15 07:30N 38°42' W 009°10'0 0.0
2018-Jul-15 07:00N 38°42' W 009°10'0 0.0
2018-Jul-15 06:27N 38°42' W 009°10'0 0.0
2018-Jul-15 05:59N 38°42' W 009°10'0 0.0
2018-Jul-15 05:30N 38°42' W 009°10'0 0.0
2018-Jul-15 05:00N 38°42' W 009°10'0 0.0
2018-Jul-15 04:23N 38°42' W 009°10'0 0.0
2018-Jul-15 03:59N 38°42' W 009°10'0 0.0
2018-Jul-15 03:25N 38°42' W 009°10'0 0.0
2018-Jul-15 02:57N 38°42' W 009°10'0 0.0
2018-Jul-15 02:30N 38°42' W 009°10'0 0.0
2018-Jul-15 01:59N 38°42' W 009°10'0 0.0
2018-Jul-15 01:24N 38°42' W 009°10'0 0.0
2018-Jul-15 01:00N 38°42' W 009°10'0 0.0
2018-Jul-15 00:29N 38°42' W 009°10'0 0.0
2018-Jul-15 00:00N 38°42' W 009°10'0 0.0
2018-Jul-14 23:29N 38°42' W 009°10'0 0.0
2018-Jul-14 22:57N 38°42' W 009°10'0 0.0
2018-Jul-14 22:27N 38°42' W 009°10'0 0.0
2018-Jul-14 22:00N 38°42' W 009°10'0 0.0
2018-Jul-14 21:28N 38°42' W 009°10'0 0.0
2018-Jul-14 21:00N 38°42' W 009°10'0 0.0
2018-Jul-14 20:29N 38°42' W 009°10'0 0.0
2018-Jul-14 19:31N 38°42' W 009°10'0 0.0
2018-Jul-14 19:30N 38°42' W 009°10'0 0.0
2018-Jul-14 19:00N 38°42' W 009°10'0 0.0
2018-Jul-14 18:28N 38°42' W 009°10'0 0.0
2018-Jul-14 17:57N 38°42' W 009°10'0 0.0
2018-Jul-14 17:07N 38°42' W 009°10'0 0.0
2018-Jul-14 16:59N 38°42' W 009°10'0 0.0
2018-Jul-14 16:28N 38°42' W 009°10'0 0.0
2018-Jul-14 15:58N 38°42' W 009°10'0 0.0
2018-Jul-14 15:30N 38°42' W 009°10'2 3.8
2018-Jul-14 15:00N 38°42' W 009°07'2 2.3
2018-Jul-14 14:18N 38°44' W 009°06'2 2.0
2018-Jul-14 13:30N 38°42' W 009°07'3 5.3
2018-Jul-14 13:00N 38°42' W 009°11'2 3.6
2018-Jul-14 12:29N 38°41' W 009°13'2 3.6
2018-Jul-14 12:00N 38°42' W 009°11'1 1.3
2018-Jul-14 11:29N 38°42' W 009°10'0 0.0
2018-Jul-14 11:00N 38°42' W 009°10'0 0.0
2018-Jul-14 10:28N 38°42' W 009°10'0 0.0
2018-Jul-14 10:00N 38°42' W 009°10'0 0.0
2018-Jul-14 09:29N 38°42' W 009°10'0 0.0
2018-Jul-14 09:00N 38°42' W 009°10'0 0.0
2018-Jul-14 08:30N 38°42' W 009°10'0 0.0
2018-Jul-14 07:54N 38°42' W 009°10'0 0.0
2018-Jul-14 07:28N 38°42' W 009°10'0 0.0
2018-Jul-14 06:56N 38°42' W 009°10'0 0.0
2018-Jul-14 06:30N 38°42' W 009°10'0 0.0
2018-Jul-14 06:00N 38°42' W 009°10'0 0.0
2018-Jul-14 05:30N 38°42' W 009°10'0 0.0
2018-Jul-14 04:59N 38°42' W 009°10'0 0.0
2018-Jul-14 04:24N 38°42' W 009°10'0 0.0
2018-Jul-14 04:00N 38°42' W 009°10'0 0.0
2018-Jul-14 03:29N 38°42' W 009°10'0 0.0
2018-Jul-14 02:58N 38°42' W 009°10'0 0.0
2018-Jul-14 02:30N 38°42' W 009°10'0 0.0
2018-Jul-14 02:00N 38°42' W 009°10'0 0.0
2018-Jul-14 01:23N 38°42' W 009°10'0 0.0
2018-Jul-14 01:00N 38°42' W 009°10'0 0.0
2018-Jul-14 00:27N 38°42' W 009°10'0 0.0
2018-Jul-13 23:57N 38°42' W 009°10'0 0.0
2018-Jul-13 23:30N 38°42' W 009°10'0 0.0
2018-Jul-13 22:55N 38°42' W 009°10'0 0.0
2018-Jul-13 22:27N 38°42' W 009°10'0 0.0
2018-Jul-13 21:56N 38°42' W 009°10'0 0.0
2018-Jul-13 21:30N 38°42' W 009°10'0 0.0
2018-Jul-13 21:00N 38°42' W 009°10'0 0.0
2018-Jul-13 20:29N 38°42' W 009°10'0 0.0
2018-Jul-13 19:59N 38°42' W 009°10'0 0.0
2018-Jul-13 19:30N 38°42' W 009°10'0 0.0
2018-Jul-13 19:00N 38°42' W 009°10'0 0.0
2018-Jul-13 18:27N 38°42' W 009°10'0 0.0
2018-Jul-13 18:00N 38°42' W 009°10'0 0.7
2018-Jul-13 17:29N 38°42' W 009°10'1 2.6
2018-Jul-13 16:59N 38°42' W 009°12'1 2.6
2018-Jul-13 16:29N 38°41' W 009°14'2 3.2
2018-Jul-13 16:00N 38°42' W 009°12'1 2.3
2018-Jul-13 15:24N 38°42' W 009°10'0 0.0
2018-Jul-13 14:58N 38°42' W 009°10'0 0.0
2018-Jul-13 13:38N 38°42' W 009°10'0 0.0
2018-Jul-13 13:19N 38°42' W 009°10'0 0.0
2018-Jul-13 12:58N 38°42' W 009°10'0 0.0
2018-Jul-13 11:59N 38°42' W 009°10'0 0.0
2018-Jul-13 11:28N 38°42' W 009°10'0 0.0
2018-Jul-13 10:45N 38°42' W 009°10'0 0.0
2018-Jul-13 10:28N 38°42' W 009°10'0 0.0
2018-Jul-13 09:58N 38°42' W 009°10'0 0.0
2018-Jul-13 09:30N 38°42' W 009°10'0 0.0
2018-Jul-13 08:59N 38°42' W 009°10'0 0.0
2018-Jul-13 08:21N 38°42' W 009°10'0 0.0
2018-Jul-13 07:56N 38°42' W 009°10'0 0.0
2018-Jul-13 07:16N 38°42' W 009°10'0 0.0
2018-Jul-13 07:00N 38°42' W 009°10'0 0.0
2018-Jul-13 06:17N 38°42' W 009°10'0 0.0
2018-Jul-13 05:58N 38°42' W 009°10'0 0.0
2018-Jul-13 05:29N 38°42' W 009°10'0 0.0
2018-Jul-13 04:57N 38°42' W 009°10'0 0.0
2018-Jul-13 04:00N 38°42' W 009°10'0 0.0
2018-Jul-13 03:30N 38°42' W 009°10'0 0.0
2018-Jul-13 02:59N 38°42' W 009°10'0 0.0
2018-Jul-13 02:29N 38°42' W 009°10'0 0.0
2018-Jul-13 01:52N 38°42' W 009°10'0 0.0
2018-Jul-13 01:29N 38°42' W 009°10'0 0.0
2018-Jul-13 00:59N 38°42' W 009°10'0 0.0
2018-Jul-13 00:26N 38°42' W 009°10'0 0.0
2018-Jul-12 23:56N 38°42' W 009°10'0 0.0
2018-Jul-12 23:26N 38°42' W 009°10'0 0.0
2018-Jul-12 23:00N 38°42' W 009°10'0 0.0
2018-Jul-12 22:27N 38°42' W 009°10'0 0.0
2018-Jul-12 22:01N 38°42' W 009°10'0 0.0
2018-Jul-12 21:28N 38°42' W 009°10'0 0.0
2018-Jul-12 20:59N 38°42' W 009°10'  

Dump ship's entire track history